Time;durP1;ratioP1;P1;durP2;ratioP2;P2;SDS_P1;SDS_P2;PMS_P1;PMS_P2;Temp;Humidity;BMP_temperature;BMP_pressure;BME280_temperature;BME280_humidity;BME280_pressure;Samples;Min_cycle;Max_cycle;Signal;HPM_P1;HPM_P2
2022/03/14 00:00:19;;;;;;;;;;;;;;;;;;1035878;28;1153;-27
2022/03/14 00:00:49;;;;;;;;;;;;;;;;;;1036075;28;696;-31
2022/03/14 00:01:20;;;;;;;;;;;;;;;;;;1035701;28;934;-31
2022/03/14 00:01:50;;;;;;;;;;;;;;;;;;1036098;28;1016;-31
2022/03/14 00:02:21;;;;;;;;;;;;;;;;;;1035808;28;819;-30
2022/03/14 00:02:51;;;;;;;;;;;;;;;;;;1035885;28;891;-32
2022/03/14 00:03:24;;;;;;;;;;;;;;;;;;1035463;28;1906;-32
2022/03/14 00:03:55;;;;;;;;;;;;;;;;;;1035842;28;964;-34
2022/03/14 00:04:25;;;;;;;;;;;;;;;;;;1036017;28;838;-30
2022/03/14 00:04:55;;;;;;;;;;;;;;;;;;1035845;28;800;-29
2022/03/14 00:05:31;;;;;;;;;;;;;;;;;;1035996;28;772;-32
2022/03/14 00:06:02;;;;;;;;;;;;;;;;;;1035581;28;1032;-28
2022/03/14 00:06:34;;;;;;;;;;;;;;;;;;1035957;28;930;-32
2022/03/14 00:07:05;;;;;;;;;;;;;;;;;;1035842;28;1004;-26
2022/03/14 00:07:37;;;;;;;;;;;;;;;;;;1035899;28;802;-30
2022/03/14 00:08:07;;;;;;;;;;;;;;;;;;1035803;28;928;-31
2022/03/14 00:08:39;;;;;;;;;;;;;;;;;;1035846;28;823;-29
2022/03/14 00:09:10;;;;;;;;;;;;;;;;;;1035800;28;985;-34
2022/03/14 00:09:41;;;;;;;;;;;;;;;;;;1035886;28;1402;-29
2022/03/14 00:10:15;;;;;;;;;;;;;;;;;;1035692;28;811;-29
2022/03/14 00:10:47;;;;;;;;;;;;;;;;;;1035539;28;950;-30
2022/03/14 00:11:18;;;;;;;;;;;;;;;;;;1035816;28;933;-31
2022/03/14 00:11:49;;;;;;;;;;;;;;;;;;1035695;28;1258;-29
2022/03/14 00:12:25;;;;;;;;;;;;;;;;;;1035780;28;957;-30
2022/03/14 00:12:58;;;;;;;;;;;;;;;;;;1035743;28;1030;-33
2022/03/14 00:13:29;;;;;;;;;;;;;;;;;;1035672;28;771;-30
2022/03/14 00:14:03;;;;;;;;;;;;;;;;;;1035858;28;1778;-29
2022/03/14 00:14:33;;;;;;;;;;;;;;;;;;1035634;28;968;-32
2022/03/14 00:15:08;;;;;;;;;;;;;;;;;;1035973;28;1018;-31
2022/03/14 00:15:40;;;;;;;;;;;;;;;;;;1039833;28;806;-32
2022/03/14 00:16:16;;;;;;;;;;;;;;;;;;1039994;28;814;-30
2022/03/14 00:16:46;;;;;;;;;;;;;;;;;;1040173;28;850;-30
2022/03/14 00:17:18;;;;;;;;;;;;;;;;;;1039718;28;854;-27
2022/03/14 00:17:49;;;;;;;;;;;;;;;;;;1039762;28;933;-28
2022/03/14 00:18:21;;;;;;;;;;;;;;;;;;1039461;28;943;-27
2022/03/14 00:18:53;;;;;;;;;;;;;;;;;;1039980;28;894;-31
2022/03/14 00:19:23;;;;;;;;;;;;;;;;;;1040005;28;890;-30
2022/03/14 00:19:57;;;;;;;;;;;;;;;;;;1039396;28;946;-30
2022/03/14 00:20:28;;;;;;;;;;;;;;;;;;1038729;28;955;-28
2022/03/14 00:20:58;;;;;;;;;;;;;;;;;;1039652;28;893;-30
2022/03/14 00:21:30;;;;;;;;;;;;;;;;;;1039601;28;783;-28
2022/03/14 00:22:00;;;;;;;;;;;;;;;;;;1039875;28;922;-28
2022/03/14 00:22:32;;;;;;;;;;;;;;;;;;1039785;28;838;-29
2022/03/14 00:23:03;;;;;;;;;;;;;;;;;;1039933;28;1005;-27
2022/03/14 00:23:33;;;;;;;;;;;;;;;;;;1039523;28;1979;-31
2022/03/14 00:24:05;;;;;;;;;;;;;;;;;;1039833;28;853;-26
2022/03/14 00:24:36;;;;;;;;;;;;;;;;;;1036399;28;928;-28
2022/03/14 00:25:07;;;;;;;;;;;;;;;;;;1035757;28;1236;-32
2022/03/14 00:25:37;;;;;;;;;;;;;;;;;;1035403;28;1049;-29
2022/03/14 00:26:08;;;;;;;;;;;;;;;;;;1035914;28;867;-29
2022/03/14 00:26:39;;;;;;;;;;;;;;;;;;1035739;28;965;-32
2022/03/14 00:27:10;;;;;;;;;;;;;;;;;;1035504;28;629;-26
2022/03/14 00:27:41;;;;;;;;;;;;;;;;;;1035778;28;981;-32
2022/03/14 00:28:12;;;;;;;;;;;;;;;;;;1035096;28;772;-29
2022/03/14 00:28:43;;;;;;;;;;;;;;;;;;1035755;28;997;-31
2022/03/14 00:29:15;;;;;;;;;;;;;;;;;;1031165;28;1217;-30
2022/03/14 00:29:45;;;;;;;;;;;;;;;;;;1031436;28;946;-28
2022/03/14 00:30:15;;;;;;;;;;;;;;;;;;1031290;28;855;-26
2022/03/14 00:30:46;;;;;;;;;;;;;;;;;;1031549;28;812;-26
2022/03/14 00:31:17;;;;;;;;;;;;;;;;;;1035749;28;1176;-31
2022/03/14 00:31:47;;;;;;;;;;;;;;;;;;1035890;28;942;-32
2022/03/14 00:32:18;;;;;;;;;;;;;;;;;;1035637;28;798;-31
2022/03/14 00:32:49;;;;;;;;;;;;;;;;;;1036036;28;805;-26
2022/03/14 00:33:20;;;;;;;;;;;;;;;;;;1035555;28;805;-31
2022/03/14 00:33:51;;;;;;;;;;;;;;;;;;1035982;28;1185;-32
2022/03/14 00:34:21;;;;;;;;;;;;;;;;;;1035560;28;984;-27
2022/03/14 00:34:51;;;;;;;;;;;;;;;;;;1035996;28;929;-30
2022/03/14 00:35:22;;;;;;;;;;;;;;;;;;1035149;28;865;-28
2022/03/14 00:35:55;;;;;;;;;;;;;;;;;;1035822;28;1396;-29
2022/03/14 00:36:27;;;;;;;;;;;;;;;;;;1035789;28;855;-29
2022/03/14 00:36:57;;;;;;;;;;;;;;;;;;1035828;28;798;-28
2022/03/14 00:37:28;;;;;;;;;;;;;;;;;;1035742;28;901;-28
2022/03/14 00:37:59;;;;;;;;;;;;;;;;;;1035796;28;896;-26
2022/03/14 00:38:29;;;;;;;;;;;;;;;;;;1035667;28;878;-27
2022/03/14 00:38:59;;;;;;;;;;;;;;;;;;1035910;28;810;-27
2022/03/14 00:39:30;;;;;;;;;;;;;;;;;;1035751;28;861;-32
2022/03/14 00:40:01;;;;;;;;;;;;;;;;;;1035658;28;953;-32
2022/03/14 00:40:31;;;;;;;;;;;;;;;;;;1035879;28;1366;-28
2022/03/14 00:41:02;;;;;;;;;;;;;;;;;;1035770;28;845;-27
2022/03/14 00:41:32;;;;;;;;;;;;;;;;;;1035812;28;933;-30
2022/03/14 00:42:03;;;;;;;;;;;;;;;;;;1035903;28;1000;-27
2022/03/14 00:42:35;;;;;;;;;;;;;;;;;;1035518;28;945;-31
2022/03/14 00:43:07;;;;;;;;;;;;;;;;;;1035632;28;807;-32
2022/03/14 00:43:37;;;;;;;;;;;;;;;;;;1035606;28;1906;-31
2022/03/14 00:44:07;;;;;;;;;;;;;;;;;;1035892;28;917;-32
2022/03/14 00:44:38;;;;;;;;;;;;;;;;;;1035235;28;902;-28
2022/03/14 00:45:09;;;;;;;;;;;;;;;;;;1035189;28;814;-32
2022/03/14 00:45:39;;;;;;;;;;;;;;;;;;1035691;28;878;-31
2022/03/14 00:46:10;;;;;;;;;;;;;;;;;;1035915;28;1258;-32
2022/03/14 00:46:41;;;;;;;;;;;;;;;;;;1035762;28;1217;-31
2022/03/14 00:47:12;;;;;;;;;;;;;;;;;;1041155;28;1098;-33
2022/03/14 00:47:42;;;;;;;;;;;;;;;;;;1043648;28;972;-30
2022/03/14 00:48:12;;;;;;;;;;;;;;;;;;1044119;28;825;-27
2022/03/14 00:48:43;;;;;;;;;;;;;;;;;;1044081;28;826;-27
2022/03/14 00:49:14;;;;;;;;;;;;;;;;;;1043813;28;842;-28
2022/03/14 00:49:46;;;;;;;;;;;;;;;;;;1043947;28;1288;-29
2022/03/14 00:50:16;;;;;;;;;;;;;;;;;;1043184;28;882;-31
2022/03/14 00:50:47;;;;;;;;;;;;;;;;;;1044077;28;890;-27
2022/03/14 00:51:17;;;;;;;;;;;;;;;;;;1043991;28;1345;-32
2022/03/14 00:51:47;;;;;;;;;;;;;;;;;;1043858;28;995;-30
2022/03/14 00:52:18;;;;;;;;;;;;;;;;;;1044055;28;878;-28
2022/03/14 00:52:48;;;;;;;;;;;;;;;;;;1043946;28;929;-28
2022/03/14 00:53:19;;;;;;;;;;;;;;;;;;1043907;28;920;-29
2022/03/14 00:53:49;;;;;;;;;;;;;;;;;;1044056;28;802;-31
2022/03/14 00:54:19;;;;;;;;;;;;;;;;;;1043898;28;905;-30
2022/03/14 00:54:50;;;;;;;;;;;;;;;;;;1044065;28;826;-28
2022/03/14 00:55:20;;;;;;;;;;;;;;;;;;1043976;28;968;-31
2022/03/14 00:55:50;;;;;;;;;;;;;;;;;;1043916;28;893;-31
2022/03/14 00:56:21;;;;;;;;;;;;;;;;;;1044088;28;905;-29
2022/03/14 00:56:51;;;;;;;;;;;;;;;;;;1043887;28;861;-29
2022/03/14 00:57:22;;;;;;;;;;;;;;;;;;1043636;28;929;-30
2022/03/14 00:57:53;;;;;;;;;;;;;;;;;;1043562;28;874;-29
2022/03/14 00:58:24;;;;;;;;;;;;;;;;;;1043988;28;909;-29
2022/03/14 00:58:55;;;;;;;;;;;;;;;;;;1043887;28;893;-27
2022/03/14 00:59:27;;;;;;;;;;;;;;;;;;1044016;28;893;-31
2022/03/14 00:59:57;;;;;;;;;;;;;;;;;;1043741;28;1012;-26
2022/03/14 01:00:28;;;;;;;;;;;;;;;;;;1044086;28;1250;-29
2022/03/14 01:00:58;;;;;;;;;;;;;;;;;;1043758;28;841;-29
2022/03/14 01:01:28;;;;;;;;;;;;;;;;;;1044110;28;1363;-32
2022/03/14 01:01:59;;;;;;;;;;;;;;;;;;1043662;28;961;-32
2022/03/14 01:02:31;;;;;;;;;;;;;;;;;;1043970;28;850;-27
2022/03/14 01:03:01;;;;;;;;;;;;;;;;;;1043968;28;810;-26
2022/03/14 01:03:32;;;;;;;;;;;;;;;;;;1043699;28;2012;-29
2022/03/14 01:04:03;;;;;;;;;;;;;;;;;;1044013;28;866;-32
2022/03/14 01:04:33;;;;;;;;;;;;;;;;;;1043823;28;854;-31
2022/03/14 01:05:04;;;;;;;;;;;;;;;;;;1043349;28;956;-33
2022/03/14 01:05:34;;;;;;;;;;;;;;;;;;1043984;28;860;-28
2022/03/14 01:06:11;;;;;;;;;;;;;;;;;;1043863;28;885;-33
2022/03/14 01:06:41;;;;;;;;;;;;;;;;;;1043864;28;925;-31
2022/03/14 01:07:11;;;;;;;;;;;;;;;;;;1043963;28;872;-29
2022/03/14 01:07:42;;;;;;;;;;;;;;;;;;1043876;28;885;-26
2022/03/14 01:08:12;;;;;;;;;;;;;;;;;;1044011;28;1096;-32
2022/03/14 01:08:43;;;;;;;;;;;;;;;;;;1043865;28;845;-30
2022/03/14 01:09:14;;;;;;;;;;;;;;;;;;1043961;28;949;-29
2022/03/14 01:09:45;;;;;;;;;;;;;;;;;;1043791;28;1437;-29
2022/03/14 01:10:15;;;;;;;;;;;;;;;;;;1043718;28;886;-31
2022/03/14 01:10:48;;;;;;;;;;;;;;;;;;1043902;28;989;-28
2022/03/14 01:11:18;;;;;;;;;;;;;;;;;;1043942;28;1024;-31
2022/03/14 01:11:48;;;;;;;;;;;;;;;;;;1043910;28;1419;-29
2022/03/14 01:12:19;;;;;;;;;;;;;;;;;;1043337;28;911;-29
2022/03/14 01:12:50;;;;;;;;;;;;;;;;;;1043848;28;869;-28
2022/03/14 01:13:20;;;;;;;;;;;;;;;;;;1043976;28;826;-31
2022/03/14 01:13:50;;;;;;;;;;;;;;;;;;1043903;28;798;-34
2022/03/14 01:14:22;;;;;;;;;;;;;;;;;;1043933;28;803;-33
2022/03/14 01:14:52;;;;;;;;;;;;;;;;;;1043786;28;940;-27
2022/03/14 01:15:23;;;;;;;;;;;;;;;;;;1043870;28;819;-29
2022/03/14 01:15:53;;;;;;;;;;;;;;;;;;1043674;28;981;-31
2022/03/14 01:16:23;;;;;;;;;;;;;;;;;;1043943;28;924;-32
2022/03/14 01:16:54;;;;;;;;;;;;;;;;;;1043748;28;877;-28
2022/03/14 01:17:24;;;;;;;;;;;;;;;;;;1044011;28;948;-30
2022/03/14 01:17:55;;;;;;;;;;;;;;;;;;1043610;28;893;-29
2022/03/14 01:18:25;;;;;;;;;;;;;;;;;;1043940;28;806;-30
2022/03/14 01:18:56;;;;;;;;;;;;;;;;;;1043846;28;921;-27
2022/03/14 01:19:26;;;;;;;;;;;;;;;;;;1043912;28;929;-29
2022/03/14 01:19:56;;;;;;;;;;;;;;;;;;1043193;28;882;-32
2022/03/14 01:20:27;;;;;;;;;;;;;;;;;;1043859;28;932;-31
2022/03/14 01:20:57;;;;;;;;;;;;;;;;;;1043669;28;898;-29
2022/03/14 01:21:30;;;;;;;;;;;;;;;;;;1044035;28;847;-33
2022/03/14 01:22:00;;;;;;;;;;;;;;;;;;1043703;28;853;-32
2022/03/14 01:22:31;;;;;;;;;;;;;;;;;;1043930;28;850;-27
2022/03/14 01:23:02;;;;;;;;;;;;;;;;;;1043743;28;1051;-31
2022/03/14 01:23:32;;;;;;;;;;;;;;;;;;1043784;28;1898;-32
2022/03/14 01:24:03;;;;;;;;;;;;;;;;;;1043911;28;856;-30
2022/03/14 01:24:38;;;;;;;;;;;;;;;;;;1043396;28;807;-31
2022/03/14 01:25:08;;;;;;;;;;;;;;;;;;1042534;28;1290;-29
2022/03/14 01:25:38;;;;;;;;;;;;;;;;;;1039466;28;778;-29
2022/03/14 01:26:09;;;;;;;;;;;;;;;;;;1040075;28;982;-31
2022/03/14 01:26:40;;;;;;;;;;;;;;;;;;1043792;28;972;-32
2022/03/14 01:27:10;;;;;;;;;;;;;;;;;;1043156;28;829;-30
2022/03/14 01:27:40;;;;;;;;;;;;;;;;;;1043846;28;833;-28
2022/03/14 01:28:11;;;;;;;;;;;;;;;;;;1043813;28;885;-31
2022/03/14 01:28:42;;;;;;;;;;;;;;;;;;1043671;28;838;-31
2022/03/14 01:29:17;;;;;;;;;;;;;;;;;;1043783;28;806;-31
2022/03/14 01:29:48;;;;;;;;;;;;;;;;;;1043731;28;818;-31
2022/03/14 01:30:19;;;;;;;;;;;;;;;;;;1043806;28;806;-28
2022/03/14 01:30:50;;;;;;;;;;;;;;;;;;1043817;28;1624;-28
2022/03/14 01:31:21;;;;;;;;;;;;;;;;;;1043716;28;944;-28
2022/03/14 01:31:54;;;;;;;;;;;;;;;;;;1043939;28;805;-27
2022/03/14 01:32:25;;;;;;;;;;;;;;;;;;1043810;28;941;-34
2022/03/14 01:32:55;;;;;;;;;;;;;;;;;;1043761;28;957;-34
2022/03/14 01:33:25;;;;;;;;;;;;;;;;;;1043805;28;794;-28
2022/03/14 01:33:56;;;;;;;;;;;;;;;;;;1043617;28;809;-29
2022/03/14 01:34:26;;;;;;;;;;;;;;;;;;1043419;28;790;-28
2022/03/14 01:34:56;;;;;;;;;;;;;;;;;;1043712;28;957;-32
2022/03/14 01:35:27;;;;;;;;;;;;;;;;;;1043846;28;885;-29
2022/03/14 01:35:57;;;;;;;;;;;;;;;;;;1043779;28;1030;-28
2022/03/14 01:36:28;;;;;;;;;;;;;;;;;;1043765;28;810;-26
2022/03/14 01:36:58;;;;;;;;;;;;;;;;;;1043825;28;853;-28
2022/03/14 01:37:30;;;;;;;;;;;;;;;;;;1043791;28;941;-31
2022/03/14 01:38:01;;;;;;;;;;;;;;;;;;1043573;28;817;-30
2022/03/14 01:38:31;;;;;;;;;;;;;;;;;;1043870;28;878;-31
2022/03/14 01:39:02;;;;;;;;;;;;;;;;;;1043712;28;888;-26
2022/03/14 01:39:32;;;;;;;;;;;;;;;;;;1043810;28;901;-31
2022/03/14 01:40:03;;;;;;;;;;;;;;;;;;1043779;28;802;-30
2022/03/14 01:40:34;;;;;;;;;;;;;;;;;;1043728;28;987;-31
2022/03/14 01:41:04;;;;;;;;;;;;;;;;;;1043796;28;1343;-27
2022/03/14 01:41:34;;;;;;;;;;;;;;;;;;1043644;28;1031;-32
2022/03/14 01:42:05;;;;;;;;;;;;;;;;;;1043243;28;889;-28
2022/03/14 01:42:36;;;;;;;;;;;;;;;;;;1043665;28;1000;-32
2022/03/14 01:43:06;;;;;;;;;;;;;;;;;;1043753;28;957;-28
2022/03/14 01:43:36;;;;;;;;;;;;;;;;;;1043612;28;1919;-30
2022/03/14 01:44:07;;;;;;;;;;;;;;;;;;1043796;28;798;-27
2022/03/14 01:44:40;;;;;;;;;;;;;;;;;;1043722;28;846;-31
2022/03/14 01:45:13;;;;;;;;;;;;;;;;;;1043854;28;964;-29
2022/03/14 01:45:46;;;;;;;;;;;;;;;;;;1043702;28;902;-29
2022/03/14 01:46:16;;;;;;;;;;;;;;;;;;1043863;28;902;-29
2022/03/14 01:46:48;;;;;;;;;;;;;;;;;;1043538;28;1113;-29
2022/03/14 01:47:18;;;;;;;;;;;;;;;;;;1041527;28;1085;-33
2022/03/14 01:47:49;;;;;;;;;;;;;;;;;;1039455;28;993;-32
2022/03/14 01:48:21;;;;;;;;;;;;;;;;;;1039531;28;2043;-30
2022/03/14 01:48:51;;;;;;;;;;;;;;;;;;1039676;28;882;-29
2022/03/14 01:49:22;;;;;;;;;;;;;;;;;;1039065;28;1260;-30
2022/03/14 01:49:53;;;;;;;;;;;;;;;;;;1039491;28;842;-29
2022/03/14 01:50:25;;;;;;;;;;;;;;;;;;1039724;28;965;-30
2022/03/14 01:50:55;;;;;;;;;;;;;;;;;;1039479;28;815;-32
2022/03/14 01:51:26;;;;;;;;;;;;;;;;;;1039807;28;845;-27
2022/03/14 01:51:57;;;;;;;;;;;;;;;;;;1039521;28;1301;-32
2022/03/14 01:52:27;;;;;;;;;;;;;;;;;;1039609;28;807;-26
2022/03/14 01:52:59;;;;;;;;;;;;;;;;;;1039556;28;976;-33
2022/03/14 01:53:30;;;;;;;;;;;;;;;;;;1039661;28;838;-27
2022/03/14 01:54:00;;;;;;;;;;;;;;;;;;1039600;28;894;-29
2022/03/14 01:54:31;;;;;;;;;;;;;;;;;;1039686;28;873;-29
2022/03/14 01:55:02;;;;;;;;;;;;;;;;;;1039444;28;869;-30
2022/03/14 01:55:33;;;;;;;;;;;;;;;;;;1039661;28;898;-30
2022/03/14 01:56:04;;;;;;;;;;;;;;;;;;1039350;28;937;-31
2022/03/14 01:56:35;;;;;;;;;;;;;;;;;;1039105;28;798;-31
2022/03/14 01:57:06;;;;;;;;;;;;;;;;;;1039491;28;894;-29
2022/03/14 01:57:37;;;;;;;;;;;;;;;;;;1039535;28;976;-27
2022/03/14 01:58:07;;;;;;;;;;;;;;;;;;1039643;28;826;-29
2022/03/14 01:58:38;;;;;;;;;;;;;;;;;;1039467;28;1072;-27
2022/03/14 01:59:09;;;;;;;;;;;;;;;;;;1039649;28;841;-29
2022/03/14 01:59:40;;;;;;;;;;;;;;;;;;1039623;28;822;-27
2022/03/14 02:00:19;;;;;;;;;;;;;;;;;;1039461;28;826;-32
2022/03/14 02:00:50;;;;;;;;;;;;;;;;;;1039705;28;640;-32
2022/03/14 02:01:21;;;;;;;;;;;;;;;;;;1039665;28;890;-27
2022/03/14 02:01:51;;;;;;;;;;;;;;;;;;1039504;28;1020;-32
2022/03/14 02:02:22;;;;;;;;;;;;;;;;;;1039703;28;1000;-29
2022/03/14 02:02:52;;;;;;;;;;;;;;;;;;1039498;28;874;-29
2022/03/14 02:03:22;;;;;;;;;;;;;;;;;;1039575;28;1910;-32
2022/03/14 02:03:53;;;;;;;;;;;;;;;;;;1039591;28;925;-28
2022/03/14 02:04:23;;;;;;;;;;;;;;;;;;1039016;28;878;-29
2022/03/14 02:04:54;;;;;;;;;;;;;;;;;;1039545;28;885;-29
2022/03/14 02:05:24;;;;;;;;;;;;;;;;;;1039636;28;873;-31
2022/03/14 02:05:55;;;;;;;;;;;;;;;;;;1039534;28;969;-29
2022/03/14 02:06:28;;;;;;;;;;;;;;;;;;1039647;28;806;-33
2022/03/14 02:06:58;;;;;;;;;;;;;;;;;;1039475;28;894;-32
2022/03/14 02:07:30;;;;;;;;;;;;;;;;;;1039622;28;944;-28
2022/03/14 02:08:01;;;;;;;;;;;;;;;;;;1039511;28;937;-33
2022/03/14 02:08:31;;;;;;;;;;;;;;;;;;1039582;28;897;-30
2022/03/14 02:09:03;;;;;;;;;;;;;;;;;;1039646;28;810;-32
2022/03/14 02:09:33;;;;;;;;;;;;;;;;;;1039499;28;893;-32
2022/03/14 02:10:04;;;;;;;;;;;;;;;;;;1039553;28;945;-30
2022/03/14 02:10:34;;;;;;;;;;;;;;;;;;1039539;28;905;-28
2022/03/14 02:11:05;;;;;;;;;;;;;;;;;;1039553;28;818;-32
2022/03/14 02:11:35;;;;;;;;;;;;;;;;;;1039164;28;945;-33
2022/03/14 02:12:07;;;;;;;;;;;;;;;;;;1039418;28;980;-31
2022/03/14 02:12:40;;;;;;;;;;;;;;;;;;1039693;28;846;-28
2022/03/14 02:13:11;;;;;;;;;;;;;;;;;;1039419;28;826;-30
2022/03/14 02:13:41;;;;;;;;;;;;;;;;;;1039603;28;933;-29
2022/03/14 02:14:12;;;;;;;;;;;;;;;;;;1039551;28;921;-27
2022/03/14 02:14:42;;;;;;;;;;;;;;;;;;1039623;28;936;-30
2022/03/14 02:15:13;;;;;;;;;;;;;;;;;;1039416;28;948;-28
2022/03/14 02:15:45;;;;;;;;;;;;;;;;;;1039593;28;866;-30
2022/03/14 02:16:15;;;;;;;;;;;;;;;;;;1039465;28;925;-28
2022/03/14 02:16:46;;;;;;;;;;;;;;;;;;1039563;28;949;-26
2022/03/14 02:17:18;;;;;;;;;;;;;;;;;;1039463;28;978;-33
2022/03/14 02:17:48;;;;;;;;;;;;;;;;;;1039457;28;861;-29
2022/03/14 02:18:19;;;;;;;;;;;;;;;;;;1039479;28;984;-29
2022/03/14 02:18:49;;;;;;;;;;;;;;;;;;1038983;28;928;-30
2022/03/14 02:19:20;;;;;;;;;;;;;;;;;;1039482;28;842;-29
2022/03/14 02:19:52;;;;;;;;;;;;;;;;;;1039557;28;999;-28
2022/03/14 02:20:23;;;;;;;;;;;;;;;;;;1039549;28;897;-31
2022/03/14 02:20:53;;;;;;;;;;;;;;;;;;1039616;28;834;-31
2022/03/14 02:21:24;;;;;;;;;;;;;;;;;;1039461;28;902;-29
2022/03/14 02:21:54;;;;;;;;;;;;;;;;;;1039565;28;941;-31
2022/03/14 02:22:24;;;;;;;;;;;;;;;;;;1039575;28;794;-30
2022/03/14 02:22:55;;;;;;;;;;;;;;;;;;1039548;28;973;-27
2022/03/14 02:23:26;;;;;;;;;;;;;;;;;;1039425;28;1910;-30
2022/03/14 02:23:57;;;;;;;;;;;;;;;;;;1039559;28;806;-29
2022/03/14 02:24:29;;;;;;;;;;;;;;;;;;1039424;28;874;-28
2022/03/14 02:24:59;;;;;;;;;;;;;;;;;;1039712;28;778;-27
2022/03/14 02:25:32;;;;;;;;;;;;;;;;;;1043214;28;1211;-27
2022/03/14 02:26:02;;;;;;;;;;;;;;;;;;1043737;28;944;-28
2022/03/14 02:26:39;;;;;;;;;;;;;;;;;;1042910;28;933;-28
2022/03/14 02:27:11;;;;;;;;;;;;;;;;;;1043665;28;833;-31
2022/03/14 02:27:41;;;;;;;;;;;;;;;;;;1043665;28;1007;-30
2022/03/14 02:28:13;;;;;;;;;;;;;;;;;;1043258;28;1613;-31
2022/03/14 02:28:43;;;;;;;;;;;;;;;;;;1043769;28;944;-27
2022/03/14 02:29:14;;;;;;;;;;;;;;;;;;1043538;28;1320;-30
2022/03/14 02:29:45;;;;;;;;;;;;;;;;;;1043665;28;913;-31
2022/03/14 02:30:15;;;;;;;;;;;;;;;;;;1043651;28;949;-33
2022/03/14 02:30:46;;;;;;;;;;;;;;;;;;1043534;28;826;-30
2022/03/14 02:31:16;;;;;;;;;;;;;;;;;;1043694;28;960;-30
2022/03/14 02:31:47;;;;;;;;;;;;;;;;;;1043657;28;940;-28
2022/03/14 02:32:18;;;;;;;;;;;;;;;;;;1043544;28;956;-33
2022/03/14 02:32:48;;;;;;;;;;;;;;;;;;1043725;28;972;-32
2022/03/14 02:33:19;;;;;;;;;;;;;;;;;;1043582;28;925;-31
2022/03/14 02:33:49;;;;;;;;;;;;;;;;;;1043069;28;924;-30
2022/03/14 02:34:20;;;;;;;;;;;;;;;;;;1043540;28;1019;-30
2022/03/14 02:34:50;;;;;;;;;;;;;;;;;;1043598;28;1019;-30
2022/03/14 02:35:21;;;;;;;;;;;;;;;;;;1043557;28;1075;-31
2022/03/14 02:35:52;;;;;;;;;;;;;;;;;;1043595;28;834;-31
2022/03/14 02:36:22;;;;;;;;;;;;;;;;;;1043491;28;925;-33
2022/03/14 02:36:52;;;;;;;;;;;;;;;;;;1043692;28;917;-26
2022/03/14 02:37:23;;;;;;;;;;;;;;;;;;1043019;28;1889;-29
2022/03/14 02:37:53;;;;;;;;;;;;;;;;;;1043314;28;949;-27
2022/03/14 02:38:24;;;;;;;;;;;;;;;;;;1043271;28;897;-29
2022/03/14 02:38:54;;;;;;;;;;;;;;;;;;1043288;28;893;-29
2022/03/14 02:39:25;;;;;;;;;;;;;;;;;;1043665;28;984;-30
2022/03/14 02:39:55;;;;;;;;;;;;;;;;;;1043620;28;913;-27
2022/03/14 02:40:26;;;;;;;;;;;;;;;;;;1043520;28;1048;-31
2022/03/14 02:40:56;;;;;;;;;;;;;;;;;;1043590;28;933;-32
2022/03/14 02:41:26;;;;;;;;;;;;;;;;;;1043158;28;989;-32
2022/03/14 02:41:59;;;;;;;;;;;;;;;;;;1043779;28;853;-27
2022/03/14 02:42:29;;;;;;;;;;;;;;;;;;1043502;28;905;-29
2022/03/14 02:43:00;;;;;;;;;;;;;;;;;;1043702;28;1008;-31
2022/03/14 02:43:30;;;;;;;;;;;;;;;;;;1043510;28;1979;-30
2022/03/14 02:44:01;;;;;;;;;;;;;;;;;;1043623;28;1583;-28
2022/03/14 02:44:31;;;;;;;;;;;;;;;;;;1043466;28;1158;-31
2022/03/14 02:45:04;;;;;;;;;;;;;;;;;;1043745;28;956;-30
2022/03/14 02:45:34;;;;;;;;;;;;;;;;;;1043527;28;807;-28
2022/03/14 02:46:05;;;;;;;;;;;;;;;;;;1043749;28;845;-30
2022/03/14 02:46:38;;;;;;;;;;;;;;;;;;1043507;28;901;-32
2022/03/14 02:47:10;;;;;;;;;;;;;;;;;;1043550;28;1347;-30
2022/03/14 02:47:40;;;;;;;;;;;;;;;;;;1042504;28;1097;-29
2022/03/14 02:48:12;;;;;;;;;;;;;;;;;;1039371;28;880;-28
2022/03/14 02:48:43;;;;;;;;;;;;;;;;;;1038896;28;865;-29
2022/03/14 02:49:13;;;;;;;;;;;;;;;;;;1039321;28;1288;-30
2022/03/14 02:49:43;;;;;;;;;;;;;;;;;;1039493;28;921;-30
2022/03/14 02:50:14;;;;;;;;;;;;;;;;;;1039499;28;866;-30
2022/03/14 02:50:49;;;;;;;;;;;;;;;;;;1039323;28;810;-29
2022/03/14 02:51:20;;;;;;;;;;;;;;;;;;1039711;28;869;-28
2022/03/14 02:51:51;;;;;;;;;;;;;;;;;;1039369;28;930;-29
2022/03/14 02:52:21;;;;;;;;;;;;;;;;;;1039555;28;1273;-28
2022/03/14 02:52:55;;;;;;;;;;;;;;;;;;1039440;28;956;-27
2022/03/14 02:53:25;;;;;;;;;;;;;;;;;;1039449;28;866;-28
2022/03/14 02:53:56;;;;;;;;;;;;;;;;;;1039573;28;806;-30
2022/03/14 02:54:27;;;;;;;;;;;;;;;;;;1039356;28;867;-30
2022/03/14 02:54:57;;;;;;;;;;;;;;;;;;1039502;28;996;-32
2022/03/14 02:55:28;;;;;;;;;;;;;;;;;;1039338;28;977;-30
2022/03/14 02:55:58;;;;;;;;;;;;;;;;;;1038931;28;937;-31
2022/03/14 02:56:29;;;;;;;;;;;;;;;;;;1039532;28;1012;-30
2022/03/14 02:56:59;;;;;;;;;;;;;;;;;;1039623;28;798;-29
2022/03/14 02:57:31;;;;;;;;;;;;;;;;;;1039271;28;988;-30
2022/03/14 02:58:01;;;;;;;;;;;;;;;;;;1039516;28;1279;-31
2022/03/14 02:58:32;;;;;;;;;;;;;;;;;;1039341;28;1368;-31
2022/03/14 02:59:06;;;;;;;;;;;;;;;;;;1039641;28;883;-31
2022/03/14 02:59:36;;;;;;;;;;;;;;;;;;1039541;28;913;-32
2022/03/14 03:00:07;;;;;;;;;;;;;;;;;;1039327;28;811;-26
2022/03/14 03:00:37;;;;;;;;;;;;;;;;;;1039436;28;1400;-30
2022/03/14 03:01:08;;;;;;;;;;;;;;;;;;1039390;28;929;-33
2022/03/14 03:01:39;;;;;;;;;;;;;;;;;;1039367;28;1348;-27
2022/03/14 03:02:10;;;;;;;;;;;;;;;;;;1039553;28;861;-31
2022/03/14 03:02:42;;;;;;;;;;;;;;;;;;1039341;28;875;-29
2022/03/14 03:03:13;;;;;;;;;;;;;;;;;;1039074;28;1310;-31
2022/03/14 03:03:43;;;;;;;;;;;;;;;;;;1039233;28;1930;-28
2022/03/14 03:04:14;;;;;;;;;;;;;;;;;;1039448;28;826;-33
2022/03/14 03:04:44;;;;;;;;;;;;;;;;;;1039510;28;894;-29
2022/03/14 03:05:15;;;;;;;;;;;;;;;;;;1039516;28;976;-32
2022/03/14 03:05:45;;;;;;;;;;;;;;;;;;1039377;28;941;-34
2022/03/14 03:06:17;;;;;;;;;;;;;;;;;;1039574;28;942;-31
2022/03/14 03:06:47;;;;;;;;;;;;;;;;;;1039298;28;945;-34
2022/03/14 03:07:19;;;;;;;;;;;;;;;;;;1039585;28;1052;-28
2022/03/14 03:07:49;;;;;;;;;;;;;;;;;;1039101;28;863;-32
2022/03/14 03:08:22;;;;;;;;;;;;;;;;;;1039858;28;878;-27
2022/03/14 03:08:53;;;;;;;;;;;;;;;;;;1040202;28;898;-28
2022/03/14 03:09:26;;;;;;;;;;;;;;;;;;1040363;28;926;-29
2022/03/14 03:09:57;;;;;;;;;;;;;;;;;;1040079;28;961;-26
2022/03/14 03:10:28;;;;;;;;;;;;;;;;;;1040347;28;861;-32
2022/03/14 03:11:01;;;;;;;;;;;;;;;;;;1039669;28;893;-28
2022/03/14 03:11:32;;;;;;;;;;;;;;;;;;1040398;28;984;-33
2022/03/14 03:12:02;;;;;;;;;;;;;;;;;;1040108;28;941;-31
2022/03/14 03:12:40;;;;;;;;;;;;;;;;;;1040221;28;791;-30
2022/03/14 03:13:10;;;;;;;;;;;;;;;;;;1040141;28;794;-28
2022/03/14 03:13:41;;;;;;;;;;;;;;;;;;1040384;28;775;-30
2022/03/14 03:14:13;;;;;;;;;;;;;;;;;;1040144;28;818;-28
2022/03/14 03:14:43;;;;;;;;;;;;;;;;;;1040199;28;890;-29
2022/03/14 03:15:17;;;;;;;;;;;;;;;;;;1040274;28;969;-32
2022/03/14 03:15:47;;;;;;;;;;;;;;;;;;1040027;28;846;-30
2022/03/14 03:16:18;;;;;;;;;;;;;;;;;;1040266;28;814;-26
2022/03/14 03:16:49;;;;;;;;;;;;;;;;;;1040258;28;956;-33
2022/03/14 03:17:22;;;;;;;;;;;;;;;;;;1040215;28;814;-30
2022/03/14 03:17:52;;;;;;;;;;;;;;;;;;1040155;28;898;-28
2022/03/14 03:18:24;;;;;;;;;;;;;;;;;;1039627;28;798;-30
2022/03/14 03:18:54;;;;;;;;;;;;;;;;;;1040217;28;961;-28
2022/03/14 03:19:25;;;;;;;;;;;;;;;;;;1040309;28;845;-28
2022/03/14 03:19:55;;;;;;;;;;;;;;;;;;1040171;28;795;-31
2022/03/14 03:20:26;;;;;;;;;;;;;;;;;;1040136;28;945;-28
2022/03/14 03:20:56;;;;;;;;;;;;;;;;;;1040224;28;913;-28
2022/03/14 03:21:27;;;;;;;;;;;;;;;;;;1040249;28;858;-30
2022/03/14 03:21:57;;;;;;;;;;;;;;;;;;1040198;28;1636;-28
2022/03/14 03:22:29;;;;;;;;;;;;;;;;;;1040114;28;862;-32
2022/03/14 03:22:59;;;;;;;;;;;;;;;;;;1040287;28;862;-28
2022/03/14 03:23:30;;;;;;;;;;;;;;;;;;1040143;28;1976;-30
2022/03/14 03:24:01;;;;;;;;;;;;;;;;;;1040228;28;865;-29
2022/03/14 03:24:31;;;;;;;;;;;;;;;;;;1040172;28;897;-29
2022/03/14 03:25:01;;;;;;;;;;;;;;;;;;1040010;28;1172;-28
2022/03/14 03:25:32;;;;;;;;;;;;;;;;;;1043770;28;826;-31
2022/03/14 03:26:04;;;;;;;;;;;;;;;;;;1044313;28;936;-27
2022/03/14 03:26:37;;;;;;;;;;;;;;;;;;1044191;28;950;-28
2022/03/14 03:27:08;;;;;;;;;;;;;;;;;;1044270;28;910;-30
2022/03/14 03:27:38;;;;;;;;;;;;;;;;;;1044364;28;902;-28
2022/03/14 03:28:09;;;;;;;;;;;;;;;;;;1044097;28;806;-30
2022/03/14 03:28:40;;;;;;;;;;;;;;;;;;1044405;28;834;-28
2022/03/14 03:29:10;;;;;;;;;;;;;;;;;;1044200;28;853;-32
2022/03/14 03:29:42;;;;;;;;;;;;;;;;;;1044373;28;826;-26
2022/03/14 03:30:12;;;;;;;;;;;;;;;;;;1044195;28;1604;-31
2022/03/14 03:30:43;;;;;;;;;;;;;;;;;;1044303;28;888;-27
2022/03/14 03:31:16;;;;;;;;;;;;;;;;;;1044330;28;814;-27
2022/03/14 03:31:47;;;;;;;;;;;;;;;;;;1044216;28;898;-28
2022/03/14 03:32:18;;;;;;;;;;;;;;;;;;1044403;28;961;-28
2022/03/14 03:32:48;;;;;;;;;;;;;;;;;;1043845;28;925;-32
2022/03/14 03:33:18;;;;;;;;;;;;;;;;;;1044051;28;938;-29
2022/03/14 03:33:50;;;;;;;;;;;;;;;;;;1044263;28;873;-27
2022/03/14 03:34:21;;;;;;;;;;;;;;;;;;1044186;28;941;-30
2022/03/14 03:34:51;;;;;;;;;;;;;;;;;;1044259;28;952;-30
2022/03/14 03:35:22;;;;;;;;;;;;;;;;;;1044362;28;909;-29
2022/03/14 03:35:52;;;;;;;;;;;;;;;;;;1044151;28;775;-28
2022/03/14 03:36:22;;;;;;;;;;;;;;;;;;1044344;28;956;-32
2022/03/14 03:36:53;;;;;;;;;;;;;;;;;;1044138;28;831;-26
2022/03/14 03:37:23;;;;;;;;;;;;;;;;;;1044305;28;869;-27
2022/03/14 03:37:53;;;;;;;;;;;;;;;;;;1044154;28;811;-28
2022/03/14 03:38:24;;;;;;;;;;;;;;;;;;1044236;28;811;-28